PWSweather.com
Personal Weather Stations
Station Observations

ChardChardGB

Lat: 50.877408, Lon: -2.94964741

Elevation: 341

Station Type: WS3083

http://www.merriott-astro.co.uk/weather/index.htm

High Low Average
Temperature 55.4°F13.0°C 40.6°F4.8°C 47.0°F8.3°C
Dew Point 39.6°F4.2°C 28.8°F-1.8°C 33.3°F0.7°C
Winds 20.2 mph 32.5 kmh 3.3 mph 5.3 kmh 10.0 mph W16.1 kmh W
Wind Gusts 31.1 mph50.1 kmh 5.4 mph8.7 kmh 14.0 mph22.5 kmh
Humidity 74% 42% 59%
Pressure 30.09 in1019.0 mb 29.78 in1008.5 mb -
Precipitation 0.01 in0.3 mm - -
Hour Temp Dew Point Humidity Winds Wind Gusts Pressure Precip Precip Rate Daily Precip Total
12:00 AM 40.8°F4.9°C 29.6°F-1.3°C 64% 8.1 mph WNW13.0 kmh WNW 10.7 mph17.2 kmh 29.90 in1012.5 mb 0.00 in0.0 mm 0.00 in0.0 mm 0.00 in0.0 mm
12:10 AM 41.0°F5.0°C 29.8°F-1.2°C 64% 9.5 mph NW15.3 kmh NW 13.0 mph20.9 kmh 29.90 in1012.5 mb 0.00 in0.0 mm 0.00 in0.0 mm 0.00 in0.0 mm
12:20 AM 41.0°F5.0°C 29.4°F-1.4°C 63% 7.5 mph WNW12.1 kmh WNW 11.4 mph18.3 kmh 29.90 in1012.5 mb 0.00 in0.0 mm 0.00 in0.0 mm 0.00 in0.0 mm
12:30 AM 41.4°F5.2°C 29.7°F-1.3°C 63% 9.1 mph NW14.6 kmh NW 11.4 mph18.3 kmh 29.89 in1012.2 mb 0.00 in0.0 mm 0.00 in0.0 mm 0.00 in0.0 mm
12:40 AM 41.5°F5.3°C 29.5°F-1.4°C 62% 10.0 mph NW16.1 kmh NW 15.2 mph24.5 kmh 29.89 in1012.2 mb 0.00 in0.0 mm 0.00 in0.0 mm 0.00 in0.0 mm
12:50 AM 41.7°F5.4°C 29.7°F-1.3°C 62% 11.2 mph NW18.0 kmh NW 15.2 mph24.5 kmh 29.89 in1012.2 mb 0.00 in0.0 mm 0.00 in0.0 mm 0.00 in0.0 mm
01:00 AM 41.5°F5.3°C 29.9°F-1.2°C 63% 9.7 mph W15.6 kmh W 15.2 mph24.5 kmh 29.89 in1012.2 mb 0.00 in0.0 mm 0.00 in0.0 mm 0.00 in0.0 mm
01:10 AM 41.4°F5.2°C 30.1°F-1.1°C 64% 7.2 mph NW11.6 kmh NW 10.7 mph17.2 kmh 29.89 in1012.2 mb 0.00 in0.0 mm 0.00 in0.0 mm 0.00 in0.0 mm
01:20 AM 41.2°F5.1°C 29.9°F-1.2°C 64% 8.4 mph WNW13.5 kmh WNW 11.4 mph18.3 kmh 29.89 in1012.2 mb 0.00 in0.0 mm 0.00 in0.0 mm 0.00 in0.0 mm
01:30 AM 41.4°F5.2°C 29.3°F-1.5°C 62% 10.1 mph NW16.3 kmh NW 14.5 mph23.3 kmh 29.90 in1012.5 mb 0.00 in0.0 mm 0.00 in0.0 mm 0.00 in0.0 mm
01:40 AM 41.2°F5.1°C 29.2°F-1.6°C 62% 7.7 mph NW12.4 kmh NW 13.6 mph21.9 kmh 29.90 in1012.5 mb 0.00 in0.0 mm 0.00 in0.0 mm 0.00 in0.0 mm
01:50 AM 41.2°F5.1°C 29.2°F-1.6°C 62% 6.3 mph NW10.1 kmh NW 9.2 mph14.8 kmh 29.90 in1012.5 mb 0.00 in0.0 mm 0.00 in0.0 mm 0.00 in0.0 mm
02:00 AM 41.4°F5.2°C 29.3°F-1.5°C 62% 8.5 mph NW13.7 kmh NW 13.6 mph21.9 kmh 29.90 in1012.5 mb 0.00 in0.0 mm 0.00 in0.0 mm 0.00 in0.0 mm
02:10 AM 41.5°F5.3°C 29.5°F-1.4°C 62% 9.7 mph N15.6 kmh N 13.6 mph21.9 kmh 29.90 in1012.5 mb 0.00 in0.0 mm 0.00 in0.0 mm 0.00 in0.0 mm
02:20 AM 41.4°F5.2°C 29.3°F-1.5°C 62% 8.3 mph NW13.4 kmh NW 11.4 mph18.3 kmh 29.91 in1012.9 mb 0.00 in0.0 mm 0.00 in0.0 mm 0.00 in0.0 mm
02:30 AM 41.0°F5.0°C 29.8°F-1.2°C 64% 6.0 mph WNW9.7 kmh WNW 10.7 mph17.2 kmh 29.90 in1012.5 mb 0.00 in0.0 mm 0.00 in0.0 mm 0.00 in0.0 mm
02:40 AM 40.6°F4.8°C 29.8°F-1.2°C 65% 7.7 mph W12.4 kmh W 10.7 mph17.2 kmh 29.91 in1012.9 mb 0.00 in0.0 mm 0.00 in0.0 mm 0.00 in0.0 mm
02:50 AM 41.0°F5.0°C 30.5°F-0.8°C 66% 8.3 mph NNW13.4 kmh NNW 10.7 mph17.2 kmh 29.91 in1012.9 mb 0.00 in0.0 mm 0.00 in0.0 mm 0.00 in0.0 mm
03:00 AM 41.0°F5.0°C 30.2°F-1.0°C 65% 9.0 mph NW14.5 kmh NW 11.4 mph18.3 kmh 29.92 in1013.2 mb 0.00 in0.0 mm 0.00 in0.0 mm 0.00 in0.0 mm
03:10 AM 41.2°F5.1°C 30.3°F-0.9°C 65% 8.5 mph W13.7 kmh W 11.4 mph18.3 kmh 29.92 in1013.2 mb 0.00 in0.0 mm 0.00 in0.0 mm 0.00 in0.0 mm
03:20 AM 41.0°F5.0°C 29.8°F-1.2°C 64% 8.0 mph NW12.9 kmh NW 10.7 mph17.2 kmh 29.93 in1013.5 mb 0.00 in0.0 mm 0.00 in0.0 mm 0.00 in0.0 mm
03:30 AM 41.0°F5.0°C 29.8°F-1.2°C 64% 8.5 mph WNW13.7 kmh WNW 11.4 mph18.3 kmh 29.93 in1013.5 mb 0.00 in0.0 mm 0.00 in0.0 mm 0.00 in0.0 mm
03:40 AM 41.2°F5.1°C 29.6°F-1.3°C 63% 8.9 mph WNW14.3 kmh WNW 17.4 mph28.0 kmh 29.93 in1013.5 mb 0.00 in0.0 mm 0.00 in0.0 mm 0.00 in0.0 mm
03:50 AM 41.4°F5.2°C 29.7°F-1.3°C 63% 8.8 mph NW14.2 kmh NW 10.7 mph17.2 kmh 29.93 in1013.5 mb 0.00 in0.0 mm 0.00 in0.0 mm 0.00 in0.0 mm
04:00 AM 41.4°F5.2°C 29.3°F-1.5°C 62% 9.1 mph NW14.6 kmh NW 11.4 mph18.3 kmh 29.94 in1013.9 mb 0.00 in0.0 mm 0.00 in0.0 mm 0.00 in0.0 mm
04:10 AM 41.4°F5.2°C 29.3°F-1.5°C 62% 9.5 mph NW15.3 kmh NW 15.2 mph24.5 kmh 29.94 in1013.9 mb 0.00 in0.0 mm 0.00 in0.0 mm 0.00 in0.0 mm
04:20 AM 41.4°F5.2°C 29.3°F-1.5°C 62% 9.5 mph NW15.3 kmh NW 16.8 mph27.0 kmh 29.95 in1014.2 mb 0.00 in0.0 mm 0.00 in0.0 mm 0.00 in0.0 mm
04:30 AM 41.5°F5.3°C 29.1°F-1.6°C 61% 10.0 mph NW16.1 kmh NW 12.1 mph19.5 kmh 29.95 in1014.2 mb 0.00 in0.0 mm 0.00 in0.0 mm 0.00 in0.0 mm
04:40 AM 41.7°F5.4°C 29.3°F-1.5°C 61% 8.7 mph WNW14.0 kmh WNW 11.4 mph18.3 kmh 29.96 in1014.6 mb 0.00 in0.0 mm 0.00 in0.0 mm 0.00 in0.0 mm
04:50 AM 41.7°F5.4°C 29.3°F-1.5°C 61% 9.9 mph WNW15.9 kmh WNW 16.8 mph27.0 kmh 29.96 in1014.6 mb 0.00 in0.0 mm 0.00 in0.0 mm 0.00 in0.0 mm
05:00 AM 41.5°F5.3°C 29.5°F-1.4°C 62% 11.0 mph NW17.7 kmh NW 16.8 mph27.0 kmh 29.97 in1014.9 mb 0.00 in0.0 mm 0.00 in0.0 mm 0.00 in0.0 mm
05:10 AM 41.4°F5.2°C 29.7°F-1.3°C 63% 9.0 mph NW14.5 kmh NW 13.0 mph20.9 kmh 29.96 in1014.6 mb 0.00 in0.0 mm 0.00 in0.0 mm 0.00 in0.0 mm
05:20 AM 41.4°F5.2°C 29.3°F-1.5°C 62% 9.4 mph NW15.1 kmh NW 16.8 mph27.0 kmh 29.97 in1014.9 mb 0.00 in0.0 mm 0.00 in0.0 mm 0.00 in0.0 mm
05:30 AM 41.5°F5.3°C 29.1°F-1.6°C 61% 10.2 mph NW16.4 kmh NW 12.1 mph19.5 kmh 29.97 in1014.9 mb 0.00 in0.0 mm 0.00 in0.0 mm 0.00 in0.0 mm
05:40 AM 41.4°F5.2°C 28.9°F-1.7°C 61% 8.6 mph WNW13.8 kmh WNW 12.1 mph19.5 kmh 29.99 in1015.6 mb 0.00 in0.0 mm 0.00 in0.0 mm 0.00 in0.0 mm
05:50 AM 41.5°F5.3°C 29.5°F-1.4°C 62% 12.2 mph NW19.6 kmh NW 15.9 mph25.6 kmh 29.98 in1015.2 mb 0.00 in0.0 mm 0.00 in0.0 mm 0.00 in0.0 mm
06:00 AM 41.4°F5.2°C 29.3°F-1.5°C 62% 11.6 mph NW18.7 kmh NW 14.5 mph23.3 kmh 29.99 in1015.6 mb 0.00 in0.0 mm 0.00 in0.0 mm 0.00 in0.0 mm
06:10 AM 41.9°F5.5°C 29.0°F-1.7°C 60% 14.7 mph NW23.7 kmh NW 22.1 mph35.6 kmh 29.99 in1015.6 mb 0.00 in0.0 mm 0.00 in0.0 mm 0.00 in0.0 mm
06:20 AM 42.1°F5.6°C 28.8°F-1.8°C 59% 12.9 mph NW20.8 kmh NW 17.4 mph28.0 kmh 29.99 in1015.6 mb 0.00 in0.0 mm 0.00 in0.0 mm 0.00 in0.0 mm
06:30 AM 41.9°F5.5°C 29.0°F-1.7°C 60% 7.5 mph NW12.1 kmh NW 9.8 mph15.8 kmh 30.01 in1016.3 mb 0.00 in0.0 mm 0.00 in0.0 mm 0.00 in0.0 mm
06:40 AM 42.1°F5.6°C 29.2°F-1.6°C 60% 12.3 mph NW19.8 kmh NW 17.4 mph28.0 kmh 30.01 in1016.3 mb 0.00 in0.0 mm 0.00 in0.0 mm 0.00 in0.0 mm
06:50 AM 42.3°F5.7°C 29.4°F-1.4°C 60% 10.5 mph NW16.9 kmh NW 15.2 mph24.5 kmh 30.02 in1016.6 mb 0.00 in0.0 mm 0.00 in0.0 mm 0.00 in0.0 mm
07:00 AM 42.1°F5.6°C 29.2°F-1.6°C 60% 7.7 mph WNW12.4 kmh WNW 11.4 mph18.3 kmh 30.02 in1016.6 mb 0.00 in0.0 mm 0.00 in0.0 mm 0.00 in0.0 mm
07:10 AM 42.1°F5.6°C 29.2°F-1.6°C 60% 7.8 mph WNW12.6 kmh WNW 10.7 mph17.2 kmh 30.02 in1016.6 mb 0.00 in0.0 mm 0.00 in0.0 mm 0.00 in0.0 mm
07:20 AM 42.4°F5.8°C 29.6°F-1.3°C 60% 8.9 mph WNW14.3 kmh WNW 12.1 mph19.5 kmh 30.02 in1016.6 mb 0.00 in0.0 mm 0.00 in0.0 mm 0.00 in0.0 mm
07:30 AM 42.6°F5.9°C 29.7°F-1.3°C 60% 8.4 mph NW13.5 kmh NW 10.7 mph17.2 kmh 30.03 in1016.9 mb 0.00 in0.0 mm 0.00 in0.0 mm 0.00 in0.0 mm
07:40 AM 42.8°F6.0°C 29.9°F-1.2°C 60% 8.9 mph NW14.3 kmh NW 13.0 mph20.9 kmh 30.03 in1016.9 mb 0.00 in0.0 mm 0.00 in0.0 mm 0.00 in0.0 mm
07:50 AM 43.5°F6.4°C 31.0°F-0.6°C 61% 6.3 mph WNW10.1 kmh WNW 8.3 mph13.4 kmh 30.03 in1016.9 mb 0.00 in0.0 mm 0.00 in0.0 mm 0.00 in0.0 mm
08:00 AM 45.7°F7.6°C 30.9°F-0.6°C 56% 6.9 mph NW11.1 kmh NW 11.4 mph18.3 kmh 30.04 in1017.3 mb 0.00 in0.0 mm 0.00 in0.0 mm 0.00 in0.0 mm
08:10 AM 44.6°F7.0°C 31.6°F-0.2°C 60% 7.5 mph WNW12.1 kmh WNW 12.1 mph19.5 kmh 30.05 in1017.6 mb 0.00 in0.0 mm 0.00 in0.0 mm 0.00 in0.0 mm
08:20 AM 44.1°F6.7°C 31.5°F-0.3°C 61% 9.3 mph WNW15.0 kmh WNW 13.0 mph20.9 kmh 30.05 in1017.6 mb 0.00 in0.0 mm 0.00 in0.0 mm 0.00 in0.0 mm
08:30 AM 46.0°F7.8°C 30.8°F-0.7°C 55% 9.3 mph NW15.0 kmh NW 11.4 mph18.3 kmh 30.06 in1017.9 mb 0.00 in0.0 mm 0.00 in0.0 mm 0.00 in0.0 mm
08:40 AM 46.9°F8.3°C 30.7°F-0.7°C 53% 10.1 mph NW16.3 kmh NW 14.5 mph23.3 kmh 30.06 in1017.9 mb 0.00 in0.0 mm 0.00 in0.0 mm 0.00 in0.0 mm
08:50 AM 47.3°F8.5°C 30.6°F-0.8°C 52% 11.2 mph NW18.0 kmh NW 17.4 mph28.0 kmh 30.05 in1017.6 mb 0.00 in0.0 mm 0.00 in0.0 mm 0.00 in0.0 mm
09:00 AM 47.5°F8.6°C 30.3°F-0.9°C 51% 12.8 mph NW20.6 kmh NW 18.3 mph29.5 kmh 30.05 in1017.6 mb 0.00 in0.0 mm 0.00 in0.0 mm 0.00 in0.0 mm
09:10 AM 48.2°F9.0°C 31.4°F-0.3°C 52% 11.1 mph W17.9 kmh W 14.5 mph23.3 kmh 30.06 in1017.9 mb 0.00 in0.0 mm 0.00 in0.0 mm 0.00 in0.0 mm
09:20 AM 48.6°F9.2°C 31.7°F-0.2°C 52% 10.7 mph NW17.2 kmh NW 13.6 mph21.9 kmh 30.05 in1017.6 mb 0.00 in0.0 mm 0.00 in0.0 mm 0.00 in0.0 mm
09:30 AM 47.7°F8.7°C 30.4°F-0.9°C 51% 13.7 mph NW22.0 kmh NW 19.0 mph30.6 kmh 30.06 in1017.9 mb 0.00 in0.0 mm 0.00 in0.0 mm 0.00 in0.0 mm
09:40 AM 48.9°F9.4°C 31.6°F-0.2°C 51% 10.9 mph NW17.5 kmh NW 19.0 mph30.6 kmh 30.06 in1017.9 mb 0.00 in0.0 mm 0.00 in0.0 mm 0.00 in0.0 mm
09:50 AM 48.9°F9.4°C 31.1°F-0.5°C 50% 13.0 mph NW20.9 kmh NW 17.4 mph28.0 kmh 30.06 in1017.9 mb 0.00 in0.0 mm 0.00 in0.0 mm 0.00 in0.0 mm
10:00 AM 48.6°F9.2°C 30.8°F-0.7°C 50% 11.8 mph NNW19.0 kmh NNW 15.9 mph25.6 kmh 30.07 in1018.3 mb 0.00 in0.0 mm 0.00 in0.0 mm 0.00 in0.0 mm
10:10 AM 49.8°F9.9°C 31.4°F-0.3°C 49% 11.7 mph NW18.8 kmh NW 15.9 mph25.6 kmh 30.07 in1018.3 mb 0.00 in0.0 mm 0.00 in0.0 mm 0.00 in0.0 mm
10:20 AM 50.0°F10.0°C 29.5°F-1.4°C 45% 11.1 mph WNW17.9 kmh WNW 16.8 mph27.0 kmh 30.08 in1018.6 mb 0.00 in0.0 mm 0.00 in0.0 mm 0.00 in0.0 mm
10:30 AM 49.6°F9.8°C 29.2°F-1.6°C 45% 12.2 mph WNW19.6 kmh WNW 15.2 mph24.5 kmh 30.08 in1018.6 mb 0.00 in0.0 mm 0.00 in0.0 mm 0.00 in0.0 mm
10:40 AM 50.9°F10.5°C 29.8°F-1.2°C 44% 13.6 mph NW21.9 kmh NW 15.2 mph24.5 kmh 30.08 in1018.6 mb 0.00 in0.0 mm 0.00 in0.0 mm 0.00 in0.0 mm
10:50 AM 50.9°F10.5°C 29.8°F-1.2°C 44% 13.1 mph NW21.1 kmh NW 17.4 mph28.0 kmh 30.09 in1019.0 mb 0.00 in0.0 mm 0.00 in0.0 mm 0.00 in0.0 mm
11:00 AM 50.9°F10.5°C 30.3°F-0.9°C 45% 13.0 mph NW20.9 kmh NW 15.2 mph24.5 kmh 30.09 in1019.0 mb 0.00 in0.0 mm 0.00 in0.0 mm 0.00 in0.0 mm
11:10 AM 50.9°F10.5°C 31.9°F-0.1°C 48% 11.4 mph NW18.3 kmh NW 14.5 mph23.3 kmh 30.09 in1019.0 mb 0.00 in0.0 mm 0.00 in0.0 mm 0.00 in0.0 mm
11:20 AM 51.1°F10.6°C 32.6°F0.3°C 49% 11.1 mph NW17.9 kmh NW 14.5 mph23.3 kmh 30.09 in1019.0 mb 0.00 in0.0 mm 0.00 in0.0 mm 0.00 in0.0 mm
11:30 AM 52.2°F11.2°C 32.0°F0.0°C 46% 11.1 mph NW17.9 kmh NW 14.5 mph23.3 kmh 30.09 in1019.0 mb 0.00 in0.0 mm 0.00 in0.0 mm 0.00 in0.0 mm
11:40 AM 52.5°F11.4°C 33.4°F0.8°C 48% 8.7 mph NW14.0 kmh NW 11.4 mph18.3 kmh 30.09 in1019.0 mb 0.00 in0.0 mm 0.00 in0.0 mm 0.00 in0.0 mm
11:50 AM 53.4°F11.9°C 33.2°F0.7°C 46% 8.9 mph WNW14.3 kmh WNW 11.4 mph18.3 kmh 30.09 in1019.0 mb 0.00 in0.0 mm 0.00 in0.0 mm 0.00 in0.0 mm
12:00 PM 53.4°F11.9°C 31.5°F-0.3°C 43% 12.0 mph WNW19.3 kmh WNW 15.2 mph24.5 kmh 30.09 in1019.0 mb 0.00 in0.0 mm 0.00 in0.0 mm 0.00 in0.0 mm
12:10 PM 53.2°F11.8°C 31.3°F-0.4°C 43% 12.0 mph NW19.3 kmh NW 15.2 mph24.5 kmh 30.09 in1019.0 mb 0.00 in0.0 mm 0.00 in0.0 mm 0.00 in0.0 mm
12:20 PM 53.6°F12.0°C 31.7°F-0.2°C 43% 11.5 mph W18.5 kmh W 21.3 mph34.3 kmh 30.09 in1019.0 mb 0.00 in0.0 mm 0.00 in0.0 mm 0.00 in0.0 mm
12:30 PM 54.0°F12.2°C 31.4°F-0.3°C 42% 12.7 mph NW20.4 kmh NW 17.4 mph28.0 kmh 30.09 in1019.0 mb 0.00 in0.0 mm 0.00 in0.0 mm 0.00 in0.0 mm
12:40 PM 53.2°F11.8°C 31.9°F-0.1°C 44% 12.4 mph WNW20.0 kmh WNW 17.4 mph28.0 kmh 30.09 in1019.0 mb 0.00 in0.0 mm 0.00 in0.0 mm 0.00 in0.0 mm
12:50 PM 53.6°F12.0°C 32.2°F0.1°C 44% 10.6 mph NW17.1 kmh NW 15.2 mph24.5 kmh 30.09 in1019.0 mb 0.00 in0.0 mm 0.00 in0.0 mm 0.00 in0.0 mm
01:00 PM 54.3°F12.4°C 32.9°F0.5°C 44% 11.1 mph WNW17.9 kmh WNW 18.3 mph29.5 kmh 30.09 in1019.0 mb 0.00 in0.0 mm 0.00 in0.0 mm 0.00 in0.0 mm
01:10 PM 55.4°F13.0°C 32.7°F0.4°C 42% 9.0 mph NW14.5 kmh NW 13.6 mph21.9 kmh 30.09 in1019.0 mb 0.00 in0.0 mm 0.00 in0.0 mm 0.00 in0.0 mm
01:20 PM 54.0°F12.2°C 33.7°F0.9°C 46% 10.3 mph WNW16.6 kmh WNW 13.6 mph21.9 kmh 30.09 in1019.0 mb 0.00 in0.0 mm 0.00 in0.0 mm 0.00 in0.0 mm
01:30 PM 51.1°F10.6°C 34.6°F1.4°C 53% 10.5 mph W16.9 kmh W 13.6 mph21.9 kmh 30.09 in1019.0 mb 0.00 in0.0 mm 0.00 in0.0 mm 0.00 in0.0 mm
01:40 PM 52.5°F11.4°C 37.7°F3.2°C 57% 6.9 mph NW11.1 kmh NW 11.4 mph18.3 kmh 30.09 in1019.0 mb 0.00 in0.0 mm 0.00 in0.0 mm 0.00 in0.0 mm
01:50 PM 53.2°F11.8°C 35.6°F2.0°C 51% 7.8 mph WNW12.6 kmh WNW 10.7 mph17.2 kmh 30.08 in1018.6 mb 0.00 in0.0 mm 0.00 in0.0 mm 0.00 in0.0 mm
02:00 PM 52.0°F11.1°C 34.9°F1.6°C 52% 8.6 mph NW13.8 kmh NW 10.7 mph17.2 kmh 30.08 in1018.6 mb 0.00 in0.0 mm 0.00 in0.0 mm 0.00 in0.0 mm
02:10 PM 53.2°F11.8°C 36.1°F2.3°C 52% 7.4 mph W11.9 kmh W 12.1 mph19.5 kmh 30.07 in1018.3 mb 0.00 in0.0 mm 0.00 in0.0 mm 0.00 in0.0 mm
02:20 PM 53.4°F11.9°C 35.3°F1.8°C 50% 7.0 mph W11.3 kmh W 9.8 mph15.8 kmh 30.07 in1018.3 mb 0.00 in0.0 mm 0.00 in0.0 mm 0.00 in0.0 mm
02:30 PM 52.7°F11.5°C 36.1°F2.3°C 53% 6.6 mph W10.6 kmh W 11.4 mph18.3 kmh 30.07 in1018.3 mb 0.00 in0.0 mm 0.00 in0.0 mm 0.00 in0.0 mm
02:40 PM 51.6°F10.9°C 36.4°F2.4°C 56% 6.9 mph WNW11.1 kmh WNW 11.4 mph18.3 kmh 30.06 in1017.9 mb 0.00 in0.0 mm 0.00 in0.0 mm 0.00 in0.0 mm
02:50 PM 53.2°F11.8°C 38.9°F3.8°C 58% 5.2 mph NW8.4 kmh NW 6.9 mph11.1 kmh 30.06 in1017.9 mb 0.00 in0.0 mm 0.00 in0.0 mm 0.00 in0.0 mm
03:00 PM 55.2°F12.9°C 34.3°F1.3°C 45% 4.6 mph NW7.4 kmh NW 7.6 mph12.2 kmh 30.06 in1017.9 mb 0.00 in0.0 mm 0.00 in0.0 mm 0.00 in0.0 mm
03:10 PM 53.1°F11.7°C 37.3°F2.9°C 55% 6.3 mph NW10.1 kmh NW 9.8 mph15.8 kmh 30.05 in1017.6 mb 0.00 in0.0 mm 0.00 in0.0 mm 0.00 in0.0 mm
03:20 PM 53.4°F11.9°C 37.7°F3.2°C 55% 5.2 mph WNW8.4 kmh WNW 8.3 mph13.4 kmh 30.04 in1017.3 mb 0.00 in0.0 mm 0.00 in0.0 mm 0.00 in0.0 mm
03:30 PM 53.8°F12.1°C 37.1°F2.8°C 53% 5.4 mph NW8.7 kmh NW 9.2 mph14.8 kmh 30.04 in1017.3 mb 0.00 in0.0 mm 0.00 in0.0 mm 0.00 in0.0 mm
03:40 PM 54.0°F12.2°C 37.7°F3.2°C 54% 5.2 mph WSW8.4 kmh WSW 6.9 mph11.1 kmh 30.03 in1016.9 mb 0.00 in0.0 mm 0.00 in0.0 mm 0.00 in0.0 mm
03:50 PM 52.7°F11.5°C 37.0°F2.8°C 55% 3.5 mph W5.6 kmh W 5.4 mph8.7 kmh 30.03 in1016.9 mb 0.00 in0.0 mm 0.00 in0.0 mm 0.00 in0.0 mm
04:00 PM 52.7°F11.5°C 36.5°F2.5°C 54% 4.3 mph WSW6.9 kmh WSW 7.6 mph12.2 kmh 30.02 in1016.6 mb 0.00 in0.0 mm 0.00 in0.0 mm 0.00 in0.0 mm
04:10 PM 51.1°F10.6°C 36.4°F2.4°C 57% 3.3 mph S5.3 kmh S 6.0 mph9.7 kmh 30.03 in1016.9 mb 0.00 in0.0 mm 0.00 in0.0 mm 0.00 in0.0 mm
04:20 PM 50.9°F10.5°C 37.5°F3.1°C 60% 3.6 mph SW5.8 kmh SW 8.3 mph13.4 kmh 30.02 in1016.6 mb 0.00 in0.0 mm 0.00 in0.0 mm 0.00 in0.0 mm
04:30 PM 50.9°F10.5°C 36.7°F2.6°C 58% 4.8 mph S7.7 kmh S 7.6 mph12.2 kmh 30.02 in1016.6 mb 0.00 in0.0 mm 0.00 in0.0 mm 0.00 in0.0 mm
04:40 PM 50.7°F10.4°C 36.5°F2.5°C 58% 4.9 mph S7.9 kmh S 6.0 mph9.7 kmh 30.02 in1016.6 mb 0.00 in0.0 mm 0.00 in0.0 mm 0.00 in0.0 mm
04:50 PM 50.4°F10.2°C 36.6°F2.6°C 59% 4.4 mph S7.1 kmh S 6.9 mph11.1 kmh 30.01 in1016.3 mb 0.00 in0.0 mm 0.00 in0.0 mm 0.00 in0.0 mm
05:00 PM 49.8°F9.9°C 36.5°F2.5°C 60% 4.1 mph SSW6.6 kmh SSW 6.9 mph11.1 kmh 30.01 in1016.3 mb 0.00 in0.0 mm 0.00 in0.0 mm 0.00 in0.0 mm
05:10 PM 49.8°F9.9°C 36.5°F2.5°C 60% 5.1 mph S8.2 kmh S 9.2 mph14.8 kmh 30.01 in1016.3 mb 0.00 in0.0 mm 0.00 in0.0 mm 0.00 in0.0 mm
05:20 PM 49.5°F9.7°C 36.2°F2.3°C 60% 6.6 mph SW10.6 kmh SW 9.2 mph14.8 kmh 30.00 in1015.9 mb 0.00 in0.0 mm 0.00 in0.0 mm 0.00 in0.0 mm
05:30 PM 49.1°F9.5°C 35.8°F2.1°C 60% 6.5 mph S10.5 kmh S 9.2 mph14.8 kmh 30.01 in1016.3 mb 0.00 in0.0 mm 0.00 in0.0 mm 0.00 in0.0 mm
05:40 PM 48.9°F9.4°C 36.1°F2.3°C 61% 7.3 mph S11.7 kmh S 13.6 mph21.9 kmh 30.00 in1015.9 mb 0.00 in0.0 mm 0.00 in0.0 mm 0.00 in0.0 mm
05:50 PM 48.6°F9.2°C 36.1°F2.3°C 62% 7.5 mph SW12.1 kmh SW 10.7 mph17.2 kmh 30.00 in1015.9 mb 0.00 in0.0 mm 0.00 in0.0 mm 0.00 in0.0 mm
06:00 PM 48.2°F9.0°C 36.2°F2.3°C 63% 5.5 mph S8.9 kmh S 9.8 mph15.8 kmh 30.00 in1015.9 mb 0.00 in0.0 mm 0.00 in0.0 mm 0.00 in0.0 mm
06:10 PM 47.8°F8.8°C 36.3°F2.4°C 64% 5.4 mph SSW8.7 kmh SSW 8.3 mph13.4 kmh 29.99 in1015.6 mb 0.00 in0.0 mm 0.00 in0.0 mm 0.00 in0.0 mm
06:20 PM 47.7°F8.7°C 36.1°F2.3°C 64% 4.8 mph SW7.7 kmh SW 7.6 mph12.2 kmh 29.98 in1015.2 mb 0.00 in0.0 mm 0.00 in0.0 mm 0.00 in0.0 mm
06:30 PM 47.5°F8.6°C 35.5°F1.9°C 63% 6.9 mph S11.1 kmh S 14.5 mph23.3 kmh 29.98 in1015.2 mb 0.00 in0.0 mm 0.00 in0.0 mm 0.00 in0.0 mm
06:40 PM 47.3°F8.5°C 35.4°F1.9°C 63% 6.3 mph SSW10.1 kmh SSW 13.0 mph20.9 kmh 29.98 in1015.2 mb 0.00 in0.0 mm 0.00 in0.0 mm 0.00 in0.0 mm
06:50 PM 47.5°F8.6°C 35.5°F1.9°C 63% 7.0 mph SW11.3 kmh SW 12.1 mph19.5 kmh 29.98 in1015.2 mb 0.00 in0.0 mm 0.00 in0.0 mm 0.00 in0.0 mm
07:00 PM 47.3°F8.5°C 35.8°F2.1°C 64% 7.7 mph S12.4 kmh S 15.2 mph24.5 kmh 29.98 in1015.2 mb 0.00 in0.0 mm 0.00 in0.0 mm 0.00 in0.0 mm
07:10 PM 46.9°F8.3°C 35.4°F1.9°C 64% 7.1 mph S11.4 kmh S 9.8 mph15.8 kmh 29.97 in1014.9 mb 0.00 in0.0 mm 0.00 in0.0 mm 0.00 in0.0 mm
07:20 PM 46.9°F8.3°C 35.8°F2.1°C 65% 7.9 mph SSE12.7 kmh SSE 19.7 mph31.7 kmh 29.96 in1014.6 mb 0.00 in0.0 mm 0.00 in0.0 mm 0.00 in0.0 mm
07:30 PM 46.8°F8.2°C 36.0°F2.2°C 66% 9.2 mph SSW14.8 kmh SSW 14.5 mph23.3 kmh 29.96 in1014.6 mb 0.00 in0.0 mm 0.00 in0.0 mm 0.00 in0.0 mm
07:40 PM 46.8°F8.2°C 36.4°F2.4°C 67% 8.0 mph S12.9 kmh S 15.9 mph25.6 kmh 29.96 in1014.6 mb 0.00 in0.0 mm 0.00 in0.0 mm 0.00 in0.0 mm
07:50 PM 46.8°F8.2°C 37.1°F2.8°C 69% 7.5 mph SW12.1 kmh SW 12.1 mph19.5 kmh 29.95 in1014.2 mb 0.00 in0.0 mm 0.00 in0.0 mm 0.00 in0.0 mm
08:00 PM 46.6°F8.1°C 37.3°F2.9°C 70% 6.8 mph SSW10.9 kmh SSW 9.8 mph15.8 kmh 29.95 in1014.2 mb 0.00 in0.0 mm 0.00 in0.0 mm 0.00 in0.0 mm
08:10 PM 46.8°F8.2°C 37.9°F3.3°C 71% 7.7 mph S12.4 kmh S 12.1 mph19.5 kmh 29.93 in1013.5 mb 0.00 in0.0 mm 0.00 in0.0 mm 0.00 in0.0 mm
08:20 PM 46.9°F8.3°C 38.0°F3.3°C 71% 9.4 mph SSW15.1 kmh SSW 12.1 mph19.5 kmh 29.93 in1013.5 mb 0.00 in0.0 mm 0.00 in0.0 mm 0.00 in0.0 mm
08:30 PM 47.1°F8.4°C 38.2°F3.4°C 71% 10.9 mph SW17.5 kmh SW 15.9 mph25.6 kmh 29.92 in1013.2 mb 0.00 in0.0 mm 0.00 in0.0 mm 0.00 in0.0 mm
08:40 PM 47.3°F8.5°C 38.7°F3.7°C 72% 10.3 mph SSW16.6 kmh SSW 13.6 mph21.9 kmh 29.92 in1013.2 mb 0.00 in0.0 mm 0.00 in0.0 mm 0.00 in0.0 mm
08:50 PM 47.3°F8.5°C 38.7°F3.7°C 72% 8.4 mph SSW13.5 kmh SSW 13.0 mph20.9 kmh 29.91 in1012.9 mb 0.00 in0.0 mm 0.00 in0.0 mm 0.00 in0.0 mm
09:00 PM 47.3°F8.5°C 38.4°F3.6°C 71% 11.1 mph S17.9 kmh S 21.3 mph34.3 kmh 29.90 in1012.5 mb 0.00 in0.0 mm 0.00 in0.0 mm 0.00 in0.0 mm
09:10 PM 47.5°F8.6°C 38.2°F3.4°C 70% 12.2 mph SSW19.6 kmh SSW 17.4 mph28.0 kmh 29.90 in1012.5 mb 0.00 in0.0 mm 0.00 in0.0 mm 0.00 in0.0 mm
09:20 PM 47.7°F8.7°C 38.0°F3.3°C 69% 11.6 mph SSW18.7 kmh SSW 18.3 mph29.5 kmh 29.89 in1012.2 mb 0.00 in0.0 mm 0.00 in0.0 mm 0.00 in0.0 mm
09:30 PM 47.7°F8.7°C 38.4°F3.6°C 70% 11.4 mph SSW18.3 kmh SSW 13.6 mph21.9 kmh 29.89 in1012.2 mb 0.00 in0.0 mm 0.00 in0.0 mm 0.00 in0.0 mm
09:40 PM 47.8°F8.8°C 38.5°F3.6°C 70% 11.8 mph S19.0 kmh S 21.3 mph34.3 kmh 29.87 in1011.5 mb 0.00 in0.0 mm 0.00 in0.0 mm 0.00 in0.0 mm
09:50 PM 48.0°F8.9°C 38.7°F3.7°C 70% 12.7 mph S20.4 kmh S 15.2 mph24.5 kmh 29.87 in1011.5 mb 0.00 in0.0 mm 0.00 in0.0 mm 0.00 in0.0 mm
10:00 PM 48.2°F9.0°C 38.1°F3.4°C 68% 14.9 mph SW24.0 kmh SW 21.3 mph34.3 kmh 29.86 in1011.2 mb 0.00 in0.0 mm 0.00 in0.0 mm 0.00 in0.0 mm
10:10 PM 48.4°F9.1°C 38.3°F3.5°C 68% 15.0 mph S24.1 kmh S 19.7 mph31.7 kmh 29.86 in1011.2 mb 0.00 in0.0 mm 0.00 in0.0 mm 0.00 in0.0 mm
10:20 PM 48.4°F9.1°C 39.1°F3.9°C 70% 15.1 mph S24.3 kmh S 21.3 mph34.3 kmh 29.84 in1010.5 mb 0.00 in0.0 mm 0.00 in0.0 mm 0.00 in0.0 mm
10:30 PM 48.4°F9.1°C 39.4°F4.1°C 71% 14.7 mph SSW23.7 kmh SSW 22.8 mph36.7 kmh 29.83 in1010.2 mb 0.00 in0.0 mm 0.00 in0.0 mm 0.00 in0.0 mm
10:40 PM 48.2°F9.0°C 39.2°F4.0°C 71% 19.5 mph S31.4 kmh S 27.3 mph43.9 kmh 29.83 in1010.2 mb 0.00 in0.0 mm 0.00 in0.0 mm 0.00 in0.0 mm
10:50 PM 48.2°F9.0°C 39.6°F4.2°C 72% 18.0 mph S29.0 kmh S 31.1 mph50.1 kmh 29.82 in1009.8 mb 0.00 in0.0 mm 0.00 in0.0 mm 0.00 in0.0 mm
11:00 PM 48.6°F9.2°C 39.6°F4.2°C 71% 20.2 mph SSW32.5 kmh SSW 25.9 mph41.7 kmh 29.81 in1009.5 mb 0.00 in0.0 mm 0.00 in0.0 mm 0.00 in0.0 mm
11:10 PM 48.6°F9.2°C 39.6°F4.2°C 71% 19.7 mph SSW31.7 kmh SSW 25.9 mph41.7 kmh 29.79 in1008.8 mb 0.00 in0.0 mm 0.00 in0.0 mm 0.00 in0.0 mm
11:20 PM 48.6°F9.2°C 39.2°F4.0°C 70% 18.4 mph SSW29.6 kmh SSW 28.2 mph45.4 kmh 29.80 in1009.1 mb 0.00 in0.0 mm 0.00 in0.0 mm 0.00 in0.0 mm
11:30 PM 48.4°F9.1°C 39.4°F4.1°C 71% 14.5 mph SSW23.3 kmh SSW 25.9 mph41.7 kmh 29.79 in1008.8 mb 0.00 in0.0 mm 0.00 in0.0 mm 0.00 in0.0 mm
11:40 PM 47.8°F8.8°C 39.3°F4.1°C 72% 14.0 mph SW22.5 kmh SW 18.3 mph29.5 kmh 29.78 in1008.5 mb 0.00 in0.0 mm 0.00 in0.0 mm 0.00 in0.0 mm
11:50 PM 47.5°F8.6°C 39.6°F4.2°C 74% 16.9 mph S27.2 kmh S 24.4 mph39.3 kmh 29.78 in1008.5 mb 0.01 in0.3 mm 0.06 in1.5 mm 0.01 in0.3 mm